Time;durP1;ratioP1;P1;durP2;ratioP2;P2;SDS_P1;SDS_P2;PMS_P1;PMS_P2;Temp;Humidity;BMP_temperature;BMP_pressure;BME280_temperature;BME280_humidity;BME280_pressure;Samples;Min_cycle;Max_cycle;Signal;HPM_P1;HPM_P2
2023/05/21 00:04:16;;;;;;;5.60;5.00;;;;;;;15.15;71.51;100530.58;218459;1257;140516;-67
2023/05/21 00:09:21;;;;;;;6.00;5.20;;;;;;;15.06;71.29;100530.07;219323;1256;141232;-67
2023/05/21 00:14:26;;;;;;;7.10;5.20;;;;;;;14.98;71.26;100530.70;218084;1256;140658;-68
2023/05/21 00:19:32;;;;;;;5.70;5.20;;;;;;;14.89;71.20;100524.65;217952;1257;140661;-68
2023/05/21 00:24:38;;;;;;;6.00;5.40;;;;;;;14.78;71.19;100525.60;217871;1256;141118;-68
2023/05/21 00:29:43;;;;;;;6.10;5.20;;;;;;;14.69;71.01;100527.36;218388;1256;140665;-67
2023/05/21 00:34:47;;;;;;;6.40;5.70;;;;;;;14.59;71.01;100526.29;218040;1256;140958;-68
2023/05/21 00:39:55;;;;;;;5.60;4.80;;;;;;;14.49;71.17;100528.23;217564;1257;141225;-68
2023/05/21 00:45:02;;;;;;;7.90;4.30;;;;;;;14.39;71.25;100532.13;217817;1257;140621;-68
2023/05/21 00:50:10;;;;;;;9.50;5.60;;;;;;;14.32;71.10;100534.69;217845;1259;139826;-68
2023/05/21 00:55:14;;;;;;;;;;;;;;;14.25;71.08;100532.34;217979;1256;141256;-67
2023/05/21 01:00:20;;;;;;;6.30;5.70;;;;;;;14.11;71.27;100532.23;218479;1256;126769;-68
2023/05/21 01:05:26;;;;;;;4.60;4.20;;;;;;;14.02;71.34;100532.98;218726;1256;139924;-67
2023/05/21 01:10:31;;;;;;;6.50;5.40;;;;;;;13.93;71.40;100527.73;217835;1257;141030;-66
2023/05/21 01:15:37;;;;;;;5.70;5.10;;;;;;;13.83;71.17;100525.81;218492;1259;140890;-66
2023/05/21 01:20:46;;;;;;;12.80;5.60;;;;;;;13.72;71.22;100525.45;219132;1256;141310;-67
2023/05/21 01:25:51;;;;;;;6.70;5.40;;;;;;;13.63;71.47;100525.46;219494;1256;140242;-67
2023/05/21 01:31:00;;;;;;;5.00;4.60;;;;;;;13.56;71.55;100516.56;218462;1256;140274;-67
2023/05/21 01:36:14;;;;;;;7.30;5.40;;;;;;;13.46;71.60;100513.42;218329;1256;141260;-67
2023/05/21 01:41:20;;;;;;;6.70;4.90;;;;;;;13.39;71.66;100508.22;219863;1256;140439;-68
2023/05/21 01:46:27;;;;;;;4.90;4.40;;;;;;;13.31;71.97;100512.02;220259;1256;139981;-69
2023/05/21 01:51:32;;;;;;;6.20;5.60;;;;;;;13.24;72.03;100507.92;218406;1257;139885;-67
2023/05/21 01:56:36;;;;;;;7.90;5.70;;;;;;;13.16;72.09;100506.66;218571;1256;140205;-66
2023/05/21 02:01:40;;;;;;;6.00;4.80;;;;;;;13.08;72.48;100505.02;218196;1256;140004;-67
2023/05/21 02:06:45;;;;;;;4.70;4.30;;;;;;;13.00;72.45;100509.59;219484;1256;141676;-67
2023/05/21 02:11:48;;;;;;;5.40;4.90;;;;;;;12.88;72.49;100503.98;218677;1256;141574;-66
2023/05/21 02:16:53;;;;;;;5.20;4.70;;;;;;;12.78;72.65;100498.60;218787;1256;140685;-65
2023/05/21 02:21:58;;;;;;;5.70;5.00;;;;;;;12.72;72.76;100493.13;218087;1256;140464;-65
2023/05/21 02:27:05;;;;;;;6.40;5.80;;;;;;;12.61;72.99;100488.73;217937;1256;141997;-65
2023/05/21 02:32:10;;;;;;;4.80;3.80;;;;;;;12.46;73.50;100485.32;218241;1255;140137;-66
2023/05/21 02:37:16;;;;;;;5.20;4.70;;;;;;;12.38;73.48;100479.06;217856;1257;140345;-67
2023/05/21 02:42:23;;;;;;;6.20;5.40;;;;;;;12.26;73.68;100479.98;218590;1257;140107;-68
2023/05/21 02:47:27;;;;;;;5.90;4.70;;;;;;;12.11;73.98;100479.92;218133;1256;141138;-66
2023/05/21 02:52:32;;;;;;;7.50;5.50;;;;;;;12.07;73.93;100482.11;217934;1259;140268;-66
2023/05/21 02:57:36;;;;;;;7.50;4.80;;;;;;;12.06;73.91;100481.31;218210;1256;141935;-66
2023/05/21 03:02:41;;;;;;;6.80;4.40;;;;;;;12.04;74.24;100481.63;217980;1256;140463;-69
2023/05/21 03:07:46;;;;;;;5.80;4.80;;;;;;;12.02;74.23;100479.11;218306;1257;140651;-68
2023/05/21 03:12:52;;;;;;;4.60;4.20;;;;;;;11.98;74.35;100479.44;218540;1257;141089;-66
2023/05/21 03:17:57;;;;;;;6.00;4.50;;;;;;;11.98;74.46;100470.30;218918;1257;141067;-67
2023/05/21 03:23:03;;;;;;;4.90;4.40;;;;;;;12.01;75.03;100467.11;217853;1256;515419;-66
2023/05/21 03:28:11;;;;;;;11.30;5.60;;;;;;;12.06;74.93;100464.91;219011;1255;140638;-67
2023/05/21 03:33:16;;;;;;;7.00;6.30;;;;;;;12.15;75.02;100465.48;220586;1256;140809;-67
2023/05/21 03:38:20;;;;;;;8.00;4.30;;;;;;;12.36;75.00;100465.13;220330;1256;141358;-68
2023/05/21 03:43:26;;;;;;;5.40;4.60;;;;;;;12.50;75.20;100462.06;220355;1256;140117;-68
2023/05/21 03:48:30;;;;;;;4.80;4.40;;;;;;;12.64;75.32;100465.81;220094;1257;140451;-68
2023/05/21 03:53:36;;;;;;;4.80;4.10;;;;;;;12.94;75.09;100465.08;219516;1256;141257;-68
2023/05/21 03:58:40;;;;;;;8.10;4.40;;;;;;;13.12;75.25;100464.05;218851;1256;140316;-67
2023/05/21 04:03:46;;;;;;;5.10;4.60;;;;;;;13.23;75.11;100460.73;218187;1259;141012;-68
2023/05/21 04:08:51;;;;;;;6.30;3.60;;;;;;;13.41;75.25;100463.82;217923;1258;141022;-67
2023/05/21 04:13:56;;;;;;;4.60;4.20;;;;;;;13.68;74.96;100461.85;218921;1257;140257;-70
2023/05/21 04:19:00;;;;;;;4.40;4.00;;;;;;;14.00;74.78;100455.89;218202;1257;140004;-70
2023/05/21 04:24:05;;;;;;;7.10;3.80;;;;;;;14.33;74.66;100452.79;218713;1256;141556;-69
2023/05/21 04:29:09;;;;;;;4.90;3.10;;;;;;;15.01;73.86;100456.02;217785;1257;142592;-70
2023/05/21 04:34:17;;;;;;;6.70;3.50;;;;;;;15.95;72.69;100452.05;218441;1256;139621;-71
2023/05/21 04:39:22;;;;;;;11.80;3.70;;;;;;;16.40;71.83;100449.61;218197;1257;140304;-69
2023/05/21 04:44:26;;;;;;;4.00;3.30;;;;;;;16.95;70.75;100448.33;218066;1257;140396;-68
2023/05/21 04:49:33;;;;;;;6.60;2.80;;;;;;;17.46;69.94;100448.95;217837;1260;140163;-69
2023/05/21 04:54:40;;;;;;;4.00;3.30;;;;;;;17.87;69.01;100445.19;219281;1257;143192;-70
2023/05/21 04:59:46;;;;;;;3.30;2.70;;;;;;;19.60;66.15;100435.35;217745;1259;140240;-69
2023/05/21 05:04:52;;;;;;;5.70;2.90;;;;;;;19.75;64.88;100439.29;218007;1260;140294;-68
2023/05/21 05:09:56;;;;;;;4.10;2.90;;;;;;;19.74;63.89;100438.52;218216;1257;140007;-67
2023/05/21 05:15:00;;;;;;;3.40;3.10;;;;;;;20.95;61.14;100442.02;218343;1257;140000;-67
2023/05/21 05:20:10;;;;;;;2.60;2.40;;;;;;;24.46;57.91;100439.77;219334;1256;140365;-67
2023/05/21 05:25:15;;;;;;;4.50;3.00;;;;;;;27.68;54.91;100442.69;217642;1257;139327;-67
2023/05/21 05:30:20;;;;;;;2.90;2.70;;;;;;;30.14;50.67;100448.00;219969;1260;139802;-68
2023/05/21 05:35:24;;;;;;;9.40;2.40;;;;;;;31.96;47.04;100444.98;220364;1256;139473;-68
2023/05/21 05:40:28;;;;;;;2.00;1.90;;;;;;;33.33;43.93;100445.88;220453;1256;139531;-68
2023/05/21 05:45:33;;;;;;;1.60;1.50;;;;;;;34.81;41.53;100447.95;220406;1256;140066;-69
2023/05/21 05:50:37;;;;;;;1.40;1.30;;;;;;;36.05;39.29;100445.48;217766;1257;139715;-67
2023/05/21 05:55:42;;;;;;;3.50;2.00;;;;;;;36.86;37.00;100443.53;218718;1257;140137;-67
2023/05/21 06:00:47;;;;;;;4.10;2.70;;;;;;;37.03;35.55;100439.66;218851;1257;139636;-67
2023/05/21 06:05:52;;;;;;;2.80;1.80;;;;;;;37.62;33.67;100437.00;217492;1257;140117;-67
2023/05/21 06:10:56;;;;;;;3.30;1.80;;;;;;;38.40;32.97;100435.35;218086;1260;139760;-66
2023/05/21 06:16:00;;;;;;;1.30;1.30;;;;;;;38.88;31.80;100436.73;217668;1260;140881;-67
2023/05/21 06:21:05;;;;;;;2.50;1.30;;;;;;;38.60;31.01;100433.67;217536;1256;139480;-67
2023/05/21 06:26:10;;;;;;;1.40;1.30;;;;;;;38.21;29.42;100432.64;218176;1260;140008;-66
2023/05/21 06:31:17;;;;;;;1.70;1.60;;;;;;;37.02;29.49;100434.09;217426;1257;139588;-68
2023/05/21 06:36:28;;;;;;;1.60;1.50;;;;;;;36.37;29.50;100433.48;217700;1257;140446;-66
2023/05/21 06:41:33;;;;;;;1.90;1.50;;;;;;;35.30;29.73;100428.30;217587;1257;139453;-65
2023/05/21 06:46:38;;;;;;;4.60;1.50;;;;;;;34.66;29.89;100429.40;217704;1257;140027;-65
2023/05/21 06:51:44;;;;;;;1.80;1.70;;;;;;;33.53;29.81;100429.83;217645;1257;139880;-68
2023/05/21 06:56:49;;;;;;;2.90;1.90;;;;;;;32.98;30.54;100428.11;218454;1256;140197;-65
2023/05/21 07:01:53;;;;;;;3.60;1.20;;;;;;;33.62;30.58;100430.30;218543;1257;140167;-66
2023/05/21 07:06:58;;;;;;;3.60;2.20;;;;;;;34.54;29.55;100425.88;218722;1260;139536;-66
2023/05/21 07:12:05;;;;;;;2.10;2.00;;;;;;;35.05;28.85;100428.02;217909;1260;139757;-65
2023/05/21 07:17:09;;;;;;;2.30;1.40;;;;;;;34.78;28.23;100422.08;218265;1257;140204;-67
2023/05/21 07:22:14;;;;;;;18.60;2.30;;;;;;;34.45;28.61;100423.89;219418;1257;139477;-65
2023/05/21 07:27:18;;;;;;;1.60;1.10;;;;;;;34.26;28.26;100424.53;219705;1257;140756;-65
2023/05/21 07:32:29;;;;;;;2.10;1.30;;;;;;;33.59;28.51;100421.95;220227;1256;139826;-67
2023/05/21 07:37:34;;;;;;;1.50;1.40;;;;;;;32.97;28.93;100418.30;220319;1256;139500;-65
2023/05/21 07:42:40;;;;;;;1.50;1.40;;;;;;;32.34;29.22;100419.39;219874;1257;140036;-70
2023/05/21 07:47:45;;;;;;;1.90;1.70;;;;;;;31.74;29.84;100411.30;217605;1260;140355;-70
2023/05/21 07:52:50;;;;;;;1.30;1.20;;;;;;;31.46;29.51;100413.56;217485;1257;139460;-69
2023/05/21 07:57:55;;;;;;;2.40;1.70;;;;;;;31.07;29.63;100409.39;219458;1257;139402;-63
2023/05/21 08:02:59;;;;;;;3.70;1.70;;;;;;;30.96;30.17;100409.50;218483;1257;150385;-63
2023/05/21 08:08:05;;;;;;;2.40;1.80;;;;;;;30.73;30.69;100412.30;217813;1256;140208;-63
2023/05/21 08:13:15;;;;;;;5.50;2.10;;;;;;;30.12;30.90;100409.80;218634;1260;139524;-67
2023/05/21 08:18:22;;;;;;;6.30;2.20;;;;;;;29.99;31.51;100406.61;217462;1260;139982;-68
2023/05/21 08:23:29;;;;;;;5.20;1.80;;;;;;;29.99;31.18;100405.66;217403;1256;140417;-67
2023/05/21 08:28:39;;;;;;;1.50;1.40;;;;;;;29.85;30.99;100410.35;217830;1260;140868;-67
2023/05/21 08:33:51;;;;;;;4.30;1.90;;;;;;;29.57;30.94;100409.05;218081;1260;140210;-68
2023/05/21 08:38:57;;;;;;;2.60;2.10;;;;;;;29.20;31.53;100403.69;218379;1260;139692;-68
2023/05/21 08:44:02;;;;;;;4.70;2.40;;;;;;;28.84;31.13;100397.86;217683;1260;139114;-69
2023/05/21 08:49:12;;;;;;;2.40;2.20;;;;;;;28.66;31.18;100399.27;217851;1260;248422;-68
2023/05/21 08:54:18;;;;;;;5.20;1.80;;;;;;;28.46;31.17;100395.83;218187;1260;221541;-65
2023/05/21 08:59:22;;;;;;;2.40;1.80;;;;;;;28.24;32.00;100390.27;218727;1257;139051;-64
2023/05/21 09:04:27;;;;;;;2.30;2.10;;;;;;;28.25;32.17;100388.09;218184;1257;139985;-65
2023/05/21 09:09:35;;;;;;;2.10;2.00;;;;;;;28.36;32.34;100389.52;218920;1257;141545;-67
2023/05/21 09:14:46;;;;;;;2.10;2.00;;;;;;;28.54;32.39;100388.83;217854;1260;140516;-64
2023/05/21 09:20:12;;;;;;;4.70;2.10;;;;;;;28.64;32.30;100391.35;219114;1257;140110;-65
2023/05/21 09:25:24;;;;;;;2.20;2.00;;;;;;;28.68;32.05;100388.92;219944;1257;141164;-72
2023/05/21 09:30:28;;;;;;;2.40;1.90;;;;;;;28.82;33.01;100382.57;219981;1260;140146;-70
2023/05/21 09:35:46;;;;;;;2.70;2.00;;;;;;;28.77;32.42;100383.45;219034;1260;141691;-65
2023/05/21 09:40:50;;;;;;;2.80;2.20;;;;;;;28.52;31.97;100386.56;220426;1260;141036;-67
2023/05/21 09:45:56;;;;;;;5.60;2.10;;;;;;;28.22;32.15;100378.22;220289;1258;140597;-67
2023/05/21 09:51:11;;;;;;;4.50;2.10;;;;;;;28.08;32.33;100374.23;219075;1260;142614;-68
2023/05/21 09:56:43;;;;;;;2.10;2.00;;;;;;;28.15;33.12;100373.70;220108;1258;139745;-67
2023/05/21 10:01:51;;;;;;;7.50;2.70;;;;;;;28.11;33.05;100368.70;219215;1258;243770;-67
2023/05/21 10:06:59;;;;;;;2.60;2.40;;;;;;;28.06;33.29;100365.17;219044;1257;139562;-69
2023/05/21 10:12:06;;;;;;;3.70;2.10;;;;;;;28.13;33.69;100361.57;219403;1260;141480;-66
2023/05/21 10:17:13;;;;;;;2.80;2.60;;;;;;;28.13;33.56;100358.38;219011;1257;139228;-67
2023/05/21 10:22:19;;;;;;;3.70;2.20;;;;;;;28.01;33.47;100355.35;218037;1257;139810;-67
2023/05/21 10:27:25;;;;;;;4.40;2.30;;;;;;;27.87;33.48;100349.03;217570;1260;139711;-68
2023/05/21 10:32:34;;;;;;;1.90;1.80;;;;;;;27.73;33.55;100343.23;218683;1260;141221;-74
2023/05/21 10:37:39;;;;;;;7.60;2.20;;;;;;;27.65;33.46;100337.37;217286;1260;140288;-67
2023/05/21 10:43:11;;;;;;;3.70;2.40;;;;;;;27.52;33.62;100343.16;217991;1257;140256;-67
2023/05/21 10:48:26;;;;;;;3.20;2.50;;;;;;;27.43;33.48;100336.10;217343;1260;139618;-67
2023/05/21 10:53:58;;;;;;;3.90;1.80;;;;;;;27.30;33.46;100334.23;217564;1257;141408;-68
2023/05/21 10:59:24;;;;;;;3.90;2.00;;;;;;;27.20;33.66;100326.02;218491;1258;141192;-67
2023/05/21 11:04:29;;;;;;;4.20;2.10;;;;;;;27.07;33.74;100319.98;217669;1257;141769;-67
2023/05/21 11:09:33;;;;;;;3.10;2.20;;;;;;;27.06;33.72;100323.30;218298;1256;139475;-67
2023/05/21 11:14:41;;;;;;;3.10;2.00;;;;;;;26.98;33.48;100323.27;218986;1257;139789;-68
2023/05/21 11:19:46;;;;;;;1.90;1.70;;;;;;;26.89;33.71;100316.91;219019;1257;140741;-68
2023/05/21 11:24:55;;;;;;;2.50;2.30;;;;;;;26.93;33.67;100313.95;218220;1257;139209;-67
2023/05/21 11:30:16;;;;;;;2.20;2.00;;;;;;;26.95;33.77;100314.87;219207;1258;140416;-67
2023/05/21 11:35:23;;;;;;;3.60;2.20;;;;;;;26.96;33.42;100316.04;218166;1260;140199;-70
2023/05/21 11:40:29;;;;;;;2.30;1.80;;;;;;;27.16;33.93;100318.23;220315;1257;139354;-67
2023/05/21 11:45:34;;;;;;;1.80;1.70;;;;;;;27.25;33.00;100316.79;219982;1257;140772;-65
2023/05/21 11:50:41;;;;;;;3.40;2.10;;;;;;;27.20;33.43;100314.40;220224;1257;140003;-69
2023/05/21 11:55:47;;;;;;;2.00;1.80;;;;;;;27.18;33.47;100305.80;219882;1257;141032;-68
2023/05/21 12:00:52;;;;;;;;;;;;;;;27.27;33.70;100301.66;220264;1257;139856;-71
2023/05/21 12:06:05;;;;;;;3.80;2.70;;;;;;;27.31;33.60;100301.45;219828;1257;126397;-67
2023/05/21 12:11:10;;;;;;;5.70;2.60;;;;;;;27.26;33.47;100295.35;220301;1257;139259;-71
2023/05/21 12:16:15;;;;;;;2.60;2.40;;;;;;;27.28;33.78;100295.38;217930;1257;140118;-69
2023/05/21 12:21:19;;;;;;;3.70;2.50;;;;;;;27.18;33.57;100291.96;218856;1258;140954;-69
2023/05/21 12:26:25;;;;;;;;;;;;;;;27.17;33.63;100291.38;218427;1257;139479;-70
2023/05/21 12:31:31;;;;;;;4.30;2.20;;;;;;;27.15;33.75;100294.18;218365;1260;126226;-67
2023/05/21 12:36:48;;;;;;;2.30;2.00;;;;;;;27.06;33.96;100296.02;218252;1257;139786;-71
2023/05/21 12:41:54;;;;;;;2.50;2.30;;;;;;;26.98;33.36;100292.50;218165;1258;139577;-69
2023/05/21 12:46:58;;;;;;;2.80;2.10;;;;;;;26.95;33.52;100289.10;218299;1257;139584;-68
2023/05/21 12:52:04;;;;;;;3.50;2.20;;;;;;;27.02;33.18;100283.28;217740;1257;139977;-71
2023/05/21 12:57:17;;;;;;;3.00;2.40;;;;;;;27.02;32.89;100276.88;218215;1257;139046;-71
2023/05/21 13:02:30;;;;;;;2.30;2.20;;;;;;;27.00;33.08;100272.96;217898;1258;140755;-77
2023/05/21 13:07:37;;;;;;;2.40;2.20;;;;;;;27.07;33.24;100277.78;218932;1257;139983;-78
2023/05/21 13:12:43;;;;;;;2.70;2.30;;;;;;;27.06;33.21;100272.09;218095;1260;141994;-72
2023/05/21 13:17:48;;;;;;;2.00;1.60;;;;;;;27.04;32.93;100269.30;218333;1260;140126;-72
2023/05/21 13:22:54;;;;;;;2.20;2.00;;;;;;;26.97;32.75;100260.39;218856;1256;140130;-71
2023/05/21 13:28:03;;;;;;;2.40;2.30;;;;;;;26.81;33.08;100257.80;218755;1256;141171;-78
2023/05/21 13:33:10;;;;;;;3.00;1.90;;;;;;;26.79;33.10;100257.58;219359;1257;140911;-72
2023/05/21 13:38:15;;;;;;;11.10;2.80;;;;;;;26.77;32.96;100255.92;219100;1256;139850;-70
2023/05/21 13:43:20;;;;;;;2.00;1.90;;;;;;;26.75;32.80;100256.14;219500;1256;140352;-76
2023/05/21 13:48:26;;;;;;;6.00;2.30;;;;;;;26.58;32.71;100253.89;220035;1256;139368;-73
2023/05/21 13:53:32;;;;;;;2.80;2.00;;;;;;;26.51;32.96;100252.83;219919;1258;139223;-72
2023/05/21 13:58:39;;;;;;;2.70;2.30;;;;;;;26.52;32.89;100251.31;220420;1256;140908;-70
2023/05/21 14:03:48;;;;;;;2.60;2.40;;;;;;;26.46;33.10;100246.58;218819;1256;140167;-70
2023/05/21 14:08:53;;;;;;;3.20;2.10;;;;;;;26.46;33.04;100239.98;218579;1257;140277;-72
2023/05/21 14:14:02;;;;;;;2.60;2.40;;;;;;;26.43;32.84;100238.87;218961;1256;139852;-69
2023/05/21 14:19:06;;;;;;;4.10;2.20;;;;;;;26.33;32.63;100239.67;218933;1256;140090;-69
2023/05/21 14:24:11;;;;;;;6.00;2.20;;;;;;;26.25;32.95;100242.14;218373;1256;139366;-70
2023/05/21 14:29:17;;;;;;;;;;;;;;;26.13;32.86;100242.27;218912;1256;140939;-72
2023/05/21 14:34:26;;;;;;;3.00;2.40;;;;;;;26.03;33.13;100244.57;218745;1256;125979;-69
2023/05/21 14:39:33;;;;;;;3.90;2.70;;;;;;;25.95;32.90;100240.77;218394;1257;141178;-74
2023/05/21 14:44:39;;;;;;;4.60;2.50;;;;;;;25.87;32.96;100239.44;219080;1256;140575;-69
2023/05/21 14:49:47;;;;;;;;;;;;;;;25.81;33.19;100228.27;218228;1256;140657;-69
2023/05/21 14:54:56;;;;;;;3.30;2.30;;;;;;;25.71;33.38;100225.80;218935;1256;126840;-71
2023/05/21 15:00:01;;;;;;;6.10;2.50;;;;;;;25.64;33.53;100220.65;218251;1256;139357;-67
2023/05/21 15:05:06;;;;;;;3.00;2.10;;;;;;;25.60;33.71;100217.61;218860;1256;139941;-67
2023/05/21 15:10:13;;;;;;;2.10;1.90;;;;;;;25.56;33.75;100214.46;217858;1256;139931;-68
2023/05/21 15:15:21;;;;;;;2.90;2.30;;;;;;;25.49;33.80;100205.52;218412;1256;139087;-68
2023/05/21 15:20:25;;;;;;;2.50;2.30;;;;;;;25.43;33.77;100210.70;217577;1256;140226;-68
2023/05/21 15:25:29;;;;;;;3.00;2.10;;;;;;;25.37;33.82;100214.51;218440;1257;368561;-67
2023/05/21 15:30:34;;;;;;;7.40;2.60;;;;;;;25.35;33.99;100217.08;219109;1256;141216;-67
2023/05/21 15:35:39;;;;;;;2.40;2.30;;;;;;;25.31;33.90;100214.77;217722;1256;139482;-69
2023/05/21 15:40:46;;;;;;;2.60;2.40;;;;;;;25.21;34.15;100209.71;218764;1256;141372;-69
2023/05/21 15:45:50;;;;;;;3.30;2.50;;;;;;;25.10;34.32;100217.80;219784;1256;140216;-67
2023/05/21 15:50:55;;;;;;;2.10;2.00;;;;;;;25.01;34.29;100210.90;220278;1256;140051;-75
2023/05/21 15:56:02;;;;;;;3.50;2.90;;;;;;;24.96;34.25;100206.08;220250;1256;140819;-71
2023/05/21 16:01:06;;;;;;;2.60;2.50;;;;;;;24.89;34.29;100201.35;219153;1256;139699;-69
2023/05/21 16:06:12;;;;;;;2.50;2.30;;;;;;;24.82;34.32;100203.67;219616;1256;140083;-71
2023/05/21 16:11:17;;;;;;;4.10;2.40;;;;;;;24.78;34.69;100203.48;219444;1256;140028;-71
2023/05/21 16:16:22;;;;;;;;;;;;;;;24.70;34.51;100199.52;218896;1256;139359;-72
2023/05/21 16:21:27;;;;;;;3.20;2.70;;;;;;;24.57;34.44;100204.04;219485;1256;125909;-70
2023/05/21 16:26:31;;;;;;;2.90;2.40;;;;;;;24.54;34.97;100198.35;217624;1257;140988;-71
2023/05/21 16:31:36;;;;;;;2.80;2.60;;;;;;;24.39;35.01;100194.94;218302;1256;139278;-71
2023/05/21 16:36:42;;;;;;;2.50;2.30;;;;;;;24.22;35.39;100199.49;218019;1260;139828;-70
2023/05/21 16:41:46;;;;;;;3.80;2.90;;;;;;;24.12;36.08;100197.54;219099;1257;141114;-73
2023/05/21 16:46:52;;;;;;;5.10;2.60;;;;;;;24.04;35.98;100199.77;218460;1256;140120;-73
2023/05/21 16:51:56;;;;;;;2.90;2.80;;;;;;;23.89;35.95;100196.45;218595;1256;140506;-79
2023/05/21 16:57:01;;;;;;;5.90;2.40;;;;;;;23.72;36.09;100197.69;217959;1256;139485;-72
2023/05/21 17:02:07;;;;;;;2.90;2.40;;;;;;;23.57;36.51;100199.70;218363;1256;139284;-70
2023/05/21 17:07:20;;;;;;;3.80;3.50;;;;;;;23.41;36.70;100197.98;218386;1256;139974;-67
2023/05/21 17:12:34;;;;;;;5.80;2.80;;;;;;;23.28;36.86;100193.46;217573;1256;139098;-86
2023/05/21 17:17:41;;;;;;;4.70;3.10;;;;;;;23.13;37.21;100198.21;217582;1256;139941;-69
2023/05/21 17:22:50;;;;;;;2.60;2.40;;;;;;;22.98;37.83;100206.52;218880;1257;139350;-78
2023/05/21 17:27:56;;;;;;;2.20;2.10;;;;;;;22.79;38.06;100205.30;219220;1256;140080;-74
2023/05/21 17:33:05;;;;;;;3.60;3.20;;;;;;;22.59;38.45;100201.04;218463;1256;141623;-69
2023/05/21 17:38:27;;;;;;;2.70;2.50;;;;;;;22.37;38.98;100200.88;218715;1256;247161;-71
2023/05/21 17:43:41;;;;;;;4.70;2.90;;;;;;;22.14;39.01;100199.41;217887;1257;140406;-73
2023/05/21 17:48:48;;;;;;;;;;;;;;;21.94;39.25;100202.25;217998;1256;140068;-83
2023/05/21 17:53:53;;;;;;;11.90;3.10;;;;;;;21.67;39.96;100200.65;219512;1256;125732;-75
2023/05/21 17:58:59;;;;;;;5.90;3.00;;;;;;;21.43;40.62;100196.86;219345;1256;140227;-74
2023/05/21 18:04:11;;;;;;;3.20;2.50;;;;;;;21.21;41.06;100195.33;219368;1256;139298;-78
2023/05/21 18:09:17;;;;;;;8.00;3.40;;;;;;;21.00;41.55;100199.36;220287;1256;140390;-71
2023/05/21 18:14:21;;;;;;;7.70;3.90;;;;;;;20.81;42.18;100204.49;220401;1256;142993;-71
2023/05/21 18:19:25;;;;;;;3.90;2.80;;;;;;;20.61;43.01;100203.99;218465;1260;140482;-70
2023/05/21 18:24:30;;;;;;;4.60;2.80;;;;;;;20.43;43.41;100210.71;217733;1256;142191;-70
2023/05/21 18:29:36;;;;;;;2.80;2.40;;;;;;;20.22;43.95;100212.33;219306;1257;139953;-71
2023/05/21 18:34:42;;;;;;;3.50;3.20;;;;;;;19.98;44.60;100214.89;218162;1260;140218;-69
2023/05/21 18:39:48;;;;;;;3.10;2.50;;;;;;;19.75;45.00;100218.40;218125;1257;139074;-69
2023/05/21 18:44:55;;;;;;;2.30;2.20;;;;;;;19.50;45.46;100222.58;218265;1256;248417;-69
2023/05/21 18:50:00;;;;;;;4.40;2.40;;;;;;;19.27;45.77;100226.71;218212;1257;139285;-71
2023/05/21 18:55:05;;;;;;;3.30;3.00;;;;;;;19.05;46.38;100227.98;217888;1256;140309;-73
2023/05/21 19:00:11;;;;;;;3.20;2.90;;;;;;;18.84;46.67;100234.63;217844;1256;139741;-73
2023/05/21 19:05:18;;;;;;;4.10;3.30;;;;;;;18.64;47.20;100238.98;218313;1256;140340;-68
2023/05/21 19:10:23;;;;;;;16.20;3.90;;;;;;;18.44;47.56;100242.30;217561;1260;139649;-67
2023/05/21 19:15:28;;;;;;;3.60;2.80;;;;;;;18.26;48.01;100241.00;217618;1257;139133;-77
2023/05/21 19:20:35;;;;;;;5.70;3.90;;;;;;;18.06;48.86;100242.15;217576;1257;141856;-75
2023/05/21 19:25:42;;;;;;;6.70;2.80;;;;;;;17.86;49.33;100245.62;218105;1256;139520;-74
2023/05/21 19:30:47;;;;;;;4.40;3.20;;;;;;;17.67;49.57;100251.70;218786;1256;139515;-75
2023/05/21 19:35:52;;;;;;;4.10;3.70;;;;;;;17.49;50.22;100258.61;218281;1256;142031;-75
2023/05/21 19:40:58;;;;;;;4.40;2.90;;;;;;;17.31;50.18;100253.95;218722;1256;140549;-76
2023/05/21 19:46:05;;;;;;;4.30;3.30;;;;;;;17.14;50.32;100247.83;219119;1256;140307;-75
2023/05/21 19:51:12;;;;;;;3.10;2.90;;;;;;;16.99;50.94;100242.02;218033;1256;140014;-70
2023/05/21 19:56:17;;;;;;;;;;;;;;;16.83;51.27;100240.08;220045;1256;140874;-70
2023/05/21 20:01:31;;;;;;;4.90;3.30;;;;;;;16.64;51.68;100237.02;218358;1257;126327;-79
2023/05/21 20:06:37;;;;;;;3.30;3.00;;;;;;;16.48;52.10;100239.94;220267;1257;141272;-69
2023/05/21 20:11:43;;;;;;;3.00;2.80;;;;;;;16.34;52.77;100240.50;220340;1257;139666;-68
2023/05/21 20:16:52;;;;;;;5.00;4.10;;;;;;;16.22;53.26;100237.95;219090;1257;140296;-70
2023/05/21 20:21:59;;;;;;;9.20;3.60;;;;;;;16.08;53.75;100242.60;218207;1256;140242;-69
2023/05/21 20:27:04;;;;;;;4.80;3.40;;;;;;;15.91;54.03;100233.44;218172;1256;140648;-69
2023/05/21 20:32:09;;;;;;;4.20;3.80;;;;;;;15.73;54.49;100231.04;218754;1256;140294;-67
2023/05/21 20:37:14;;;;;;;3.50;3.20;;;;;;;15.53;54.84;100234.56;218538;1257;142127;-67
2023/05/21 20:42:20;;;;;;;7.60;3.10;;;;;;;15.35;55.51;100234.64;218724;1256;139166;-68
2023/05/21 20:47:28;;;;;;;4.60;2.80;;;;;;;15.15;55.88;100231.75;218570;1256;150596;-68
2023/05/21 20:52:36;;;;;;;6.20;3.30;;;;;;;14.94;56.17;100232.27;217747;1260;139356;-71
2023/05/21 20:57:49;;;;;;;4.80;3.60;;;;;;;14.80;56.64;100233.44;217892;1256;140388;-67
2023/05/21 21:02:54;;;;;;;3.10;2.70;;;;;;;14.72;56.79;100232.21;218254;1256;139657;-67
2023/05/21 21:08:01;;;;;;;3.40;2.80;;;;;;;14.67;56.69;100233.40;217802;1260;139917;-66
2023/05/21 21:13:06;;;;;;;3.70;3.20;;;;;;;14.61;57.02;100244.17;217626;1260;140925;-68
2023/05/21 21:18:13;;;;;;;4.40;3.10;;;;;;;14.53;57.14;100245.08;218574;1257;139250;-66
2023/05/21 21:23:18;;;;;;;3.10;2.80;;;;;;;14.45;57.68;100244.48;217977;1260;139605;-69
2023/05/21 21:28:23;;;;;;;3.30;3.00;;;;;;;14.34;57.58;100250.53;218449;1260;140152;-70
2023/05/21 21:33:28;;;;;;;7.00;2.90;;;;;;;14.22;57.69;100248.95;218724;1256;139798;-74
2023/05/21 21:38:32;;;;;;;4.30;3.70;;;;;;;14.08;57.97;100246.23;219071;1257;229612;-69
2023/05/21 21:43:37;;;;;;;4.80;4.30;;;;;;;13.97;58.21;100248.85;217948;1257;140102;-68
2023/05/21 21:48:42;;;;;;;5.30;3.90;;;;;;;13.83;58.73;100248.73;217634;1257;139774;-68
2023/05/21 21:53:47;;;;;;;13.80;4.50;;;;;;;13.68;59.06;100247.90;220401;1257;140842;-67
2023/05/21 21:58:52;;;;;;;4.60;3.80;;;;;;;13.59;59.33;100246.20;219836;1256;140445;-74
2023/05/21 22:03:56;;;;;;;5.30;3.40;;;;;;;13.55;59.64;100247.50;220239;1256;140278;-75
2023/05/21 22:09:01;;;;;;;3.50;3.20;;;;;;;13.49;59.58;100252.74;219630;1257;140840;-70
2023/05/21 22:14:10;;;;;;;4.00;3.10;;;;;;;13.42;60.30;100247.02;220197;1257;162612;-74
2023/05/21 22:19:19;;;;;;;4.10;3.70;;;;;;;13.34;60.98;100247.94;220375;1257;141286;-73
2023/05/21 22:24:25;;;;;;;18.00;5.00;;;;;;;13.26;61.60;100248.23;218331;1256;141840;-69
2023/05/21 22:29:37;;;;;;;4.40;3.80;;;;;;;13.16;61.57;100254.83;218611;1257;141295;-66
2023/05/21 22:34:42;;;;;;;3.00;2.80;;;;;;;12.97;61.66;100248.00;218023;1257;141181;-67
2023/05/21 22:39:47;;;;;;;3.90;3.60;;;;;;;12.79;62.43;100250.17;219471;1256;140798;-71
2023/05/21 22:44:52;;;;;;;5.10;3.40;;;;;;;12.69;62.97;100252.36;217654;1259;140239;-71
2023/05/21 22:49:59;;;;;;;4.50;3.40;;;;;;;12.61;63.13;100252.34;218820;1257;140772;-71
2023/05/21 22:55:10;;;;;;;6.40;3.90;;;;;;;12.54;63.31;100256.06;218284;1256;140867;-70
2023/05/21 23:00:17;;;;;;;3.70;3.40;;;;;;;12.44;63.27;100256.55;217491;1257;140146;-70
2023/05/21 23:05:23;;;;;;;7.70;4.10;;;;;;;12.29;63.61;100251.23;217843;1257;140830;-71
2023/05/21 23:10:30;;;;;;;6.10;3.90;;;;;;;12.16;64.00;100248.49;217606;1260;140920;-69
2023/05/21 23:15:37;;;;;;;7.50;3.60;;;;;;;12.05;64.35;100247.69;217451;1261;141236;-68
2023/05/21 23:20:44;;;;;;;4.40;3.50;;;;;;;11.95;64.34;100244.83;217726;1260;142733;-69